Westpoint, Tennessee
Current Conditions -  °F | °C
As of 8:53 AM on Monday 24 Nov 2014 (Local Time) from KMSL Reporting Station
Broken Clouds Broken Clouds  
Wind Chill: 60°   Ceiling: 4700
Heat Index: 60°   Visibility: 10mi
Dew Point: 47°   Wind: 20mph
Humidity: 62%   Direction: 260°W
Pressure: 29.78"   Gusts: 29mph
Location:  35.13°N, 87.53°W
Report Text: KMSL 241453Z AUTO 26017G25KT 10SM SCT036 BKN047 BKN055 16/08 A2978 RMK AO2 SLP080 T01560083 51044
Loading
Personal Weather Stations






























Interactive Weather Map New forecast layout! Learn more

10-Day Weather Forecast

Advertisements
Track Severe Weather on mobile